createdAt,value
2017-09-22T00:07:51.955Z,94.93
2017-09-22T00:27:52.304Z,99.54
2017-09-22T00:47:52.838Z,89.22
2017-09-22T01:07:53.365Z,85.44
2017-09-22T01:47:54.157Z,92.44
2017-09-22T02:07:54.578Z,99.83
2017-09-22T02:27:54.988Z,99.37
2017-09-22T02:47:55.270Z,96.70
2017-09-22T03:07:55.831Z,97.82
2017-09-22T03:27:56.059Z,95.57
2017-09-22T03:47:56.605Z,75.19
2017-09-22T04:07:57.072Z,56.48
2017-09-22T04:27:57.590Z,42.22
2017-09-22T04:57:14.143Z,63.07
2017-09-22T05:17:14.361Z,97.75
2017-09-22T05:37:14.797Z,74.41
2017-09-22T05:57:15.222Z,64.64
2017-09-22T06:17:15.760Z,42.21
2017-09-22T06:37:16.223Z,30.74
2017-09-22T06:57:16.612Z,24.46
2017-09-22T07:17:17.129Z,1.36
2017-09-22T07:37:17.603Z,0.02
2017-09-22T07:57:18.110Z,2.04
2017-09-22T08:17:18.474Z,0.05
2017-09-22T08:37:18.861Z,1.21
2017-09-22T08:57:19.320Z,1.87
2017-09-22T09:17:19.877Z,0.18
2017-09-22T09:37:20.417Z,1.45
2017-09-22T09:57:20.934Z,12.16
2017-09-22T10:17:21.481Z,12.96
2017-09-22T10:37:22.001Z,2.85
2017-09-22T10:57:22.510Z,2.24
2017-09-22T11:17:22.921Z,53.91
2017-09-22T11:42:23.540Z,100.00
2017-09-22T12:02:24.099Z,100.00
2017-09-22T12:22:24.616Z,100.00
2017-09-22T12:42:25.168Z,100.00
2017-09-22T13:02:25.702Z,97.57
2017-09-22T13:22:26.111Z,69.87
2017-09-22T13:42:26.628Z,100.00
2017-09-22T14:02:27.143Z,100.00
2017-09-22T14:22:27.700Z,100.00
2017-09-22T14:42:28.116Z,99.95
2017-09-22T15:02:28.662Z,99.92
2017-09-22T15:22:29.141Z,100.00
2017-09-22T15:42:29.668Z,94.27
2017-09-22T16:02:30.096Z,57.81
2017-09-22T16:22:30.634Z,11.86
2017-09-22T16:42:31.074Z,81.69
2017-09-22T17:02:31.643Z,86.96
2017-09-22T17:22:32.040Z,99.72
2017-09-22T17:42:32.699Z,99.50
2017-09-22T18:03:17.518Z,83.04
2017-09-22T18:23:18.034Z,97.42
2017-09-22T18:53:18.694Z,94.91
2017-09-22T19:13:19.231Z,99.47
2017-09-22T19:33:19.724Z,100.00
2017-09-22T19:53:20.288Z,99.59
2017-09-22T20:13:20.680Z,93.29
2017-09-22T20:33:21.220Z,92.94
2017-09-22T20:53:21.556Z,98.04
2017-09-22T21:13:22.024Z,94.31
2017-09-22T21:33:22.475Z,91.13
2017-09-22T21:53:22.979Z,95.35
2017-09-22T22:13:23.466Z,98.55
2017-09-22T22:33:23.912Z,98.35
2017-09-22T22:53:24.344Z,97.09
2017-09-22T23:13:24.783Z,90.30
2017-09-22T23:33:25.207Z,88.56
2017-09-22T23:53:25.707Z,88.10
